createdAt,value
2022-12-04T00:01:50.641Z,71.77
2022-12-04T00:04:20.127Z,62.05
2022-12-04T00:06:54.038Z,58.83
2022-12-04T00:09:20.717Z,55.05
2022-12-04T00:11:50.223Z,57.45
2022-12-04T00:14:19.717Z,56.80
2022-12-04T00:16:50.883Z,50.78
2022-12-04T00:19:20.341Z,54.27
2022-12-04T00:21:52.613Z,53.38
2022-12-04T00:24:22.115Z,57.83
2022-12-04T00:26:53.236Z,52.48
2022-12-04T00:29:22.727Z,54.85
2022-12-04T00:31:52.298Z,52.13
2022-12-04T00:34:23.297Z,51.92
2022-12-04T00:36:52.794Z,55.55
2022-12-04T00:39:22.213Z,58.48
2022-12-04T00:41:51.653Z,55.28
2022-12-04T00:44:21.174Z,52.48
2022-12-04T00:46:50.686Z,59.23
2022-12-04T00:49:20.122Z,54.85
2022-12-04T00:51:51.113Z,57.27
2022-12-04T00:54:20.530Z,54.55
2022-12-04T00:56:49.976Z,58.28
2022-12-04T00:59:19.494Z,54.15
2022-12-04T01:01:48.937Z,57.27
2022-12-04T01:04:18.358Z,54.05
2022-12-04T01:06:49.193Z,61.70
2022-12-04T01:09:20.060Z,56.88
2022-12-04T01:11:49.531Z,53.95
2022-12-04T01:14:18.973Z,56.23
2022-12-04T01:16:49.893Z,54.70
2022-12-04T01:19:19.318Z,54.67
2022-12-04T01:21:49.024Z,57.40
2022-12-04T01:24:18.527Z,53.98
2022-12-04T01:26:48.038Z,51.73
2022-12-04T01:29:17.589Z,53.20
2022-12-04T01:31:47.080Z,51.83
2022-12-04T01:34:16.645Z,56.18
2022-12-04T01:36:46.230Z,51.28
2022-12-04T01:39:15.723Z,53.63
2022-12-04T01:41:45.227Z,47.05
2022-12-04T01:44:24.047Z,53.17
2022-12-04T01:46:56.547Z,52.55
2022-12-04T01:49:31.822Z,58.83
2022-12-04T01:52:10.173Z,55.10
2022-12-04T01:54:42.902Z,49.53
2022-12-04T01:57:24.608Z,58.48
2022-12-04T01:59:59.868Z,47.40
2022-12-04T02:02:32.400Z,43.83
2022-12-04T02:07:33.306Z,49.27
2022-12-04T02:10:04.908Z,54.08
2022-12-04T02:12:46.411Z,53.00
2022-12-04T02:15:35.771Z,48.75
2022-12-04T02:18:11.112Z,51.05
2022-12-04T02:20:46.767Z,49.75
2022-12-04T02:23:31.202Z,57.15
2022-12-04T02:26:20.073Z,52.65
2022-12-04T02:29:12.255Z,47.95
2022-12-04T02:32:05.667Z,45.78
2022-12-04T02:37:08.395Z,49.63
2022-12-04T02:39:42.264Z,48.80
2022-12-04T02:42:17.404Z,48.38
2022-12-04T02:44:49.889Z,44.55
2022-12-04T02:47:22.569Z,45.58
2022-12-04T02:49:55.230Z,44.88
2022-12-04T02:52:28.859Z,44.08
2022-12-04T02:55:08.002Z,45.08
2022-12-04T02:57:37.019Z,46.73
2022-12-04T03:00:09.734Z,45.20
2022-12-04T03:02:52.517Z,43.50
2022-12-04T03:05:26.023Z,44.63
2022-12-04T03:08:01.594Z,44.93
2022-12-04T03:10:34.077Z,47.17
2022-12-04T03:15:36.675Z,40.28
2022-12-04T03:18:09.190Z,42.78
2022-12-04T03:20:40.764Z,44.38
2022-12-04T03:26:00.064Z,49.42
2022-12-04T03:28:32.577Z,45.73
2022-12-04T03:31:05.167Z,45.35
2022-12-04T03:33:43.948Z,42.13
2022-12-04T03:36:19.145Z,44.65
2022-12-04T03:39:00.378Z,44.23
2022-12-04T03:41:52.263Z,47.60
2022-12-04T03:44:30.235Z,45.58
2022-12-04T03:47:08.983Z,45.40
2022-12-04T03:49:47.078Z,48.15
2022-12-04T03:52:37.401Z,44.40
2022-12-04T03:55:16.234Z,43.65
2022-12-04T03:57:48.337Z,42.53
2022-12-04T04:00:22.897Z,45.80
2022-12-04T04:03:01.341Z,42.30
2022-12-04T04:05:33.369Z,41.42
2022-12-04T04:08:23.354Z,37.87
2022-12-04T04:10:58.892Z,44.60
2022-12-04T04:13:55.025Z,46.88
2022-12-04T04:16:45.572Z,44.40
2022-12-04T04:19:35.328Z,44.18
2022-12-04T04:22:25.641Z,41.02
2022-12-04T04:25:07.105Z,37.98
2022-12-04T04:27:36.554Z,36.03
2022-12-04T04:30:09.240Z,37.30
2022-12-04T04:32:47.672Z,39.67
2022-12-04T04:35:23.092Z,40.78
2022-12-04T04:38:18.240Z,38.13
2022-12-04T04:40:50.742Z,35.92
2022-12-04T04:43:23.338Z,35.70
2022-12-04T04:45:55.977Z,36.65
2022-12-04T04:48:31.358Z,40.30
2022-12-04T04:51:02.527Z,37.88
2022-12-04T04:53:38.319Z,34.58
2022-12-04T04:56:08.677Z,42.08
2022-12-04T04:58:38.131Z,37.78
2022-12-04T05:01:10.655Z,35.17
2022-12-04T05:03:40.261Z,37.73
2022-12-04T05:06:09.759Z,34.50
2022-12-04T05:08:39.264Z,36.93
2022-12-04T05:11:11.777Z,34.75
2022-12-04T05:13:41.846Z,35.88
2022-12-04T05:16:16.200Z,35.83
2022-12-04T05:19:03.972Z,34.58
2022-12-04T05:21:34.278Z,35.08
2022-12-04T05:24:03.850Z,40.23
2022-12-04T05:26:33.282Z,37.83
2022-12-04T05:29:02.806Z,42.62
2022-12-04T05:31:32.501Z,38.70
2022-12-04T05:34:02.015Z,36.88
2022-12-04T05:36:31.428Z,35.23
2022-12-04T05:39:00.866Z,36.98
2022-12-04T05:41:30.312Z,35.33
2022-12-04T05:43:59.810Z,36.13
2022-12-04T05:46:29.284Z,35.50
2022-12-04T05:48:58.973Z,35.73
2022-12-04T05:51:28.545Z,40.20
2022-12-04T05:53:57.967Z,39.13
2022-12-04T05:56:27.612Z,37.48
2022-12-04T05:58:57.045Z,38.15
2022-12-04T06:01:26.543Z,35.43
2022-12-04T06:03:56.066Z,36.45
2022-12-04T06:06:26.851Z,40.10
2022-12-04T06:08:58.919Z,39.17
2022-12-04T06:11:34.556Z,34.60
2022-12-04T06:14:06.448Z,36.00
2022-12-04T06:16:39.251Z,37.00
2022-12-04T06:19:12.050Z,36.28
2022-12-04T06:21:43.313Z,31.60
2022-12-04T06:24:16.065Z,38.30
2022-12-04T06:27:11.048Z,36.93
2022-12-04T06:29:17.750Z,34.45
2022-12-04T06:31:47.249Z,33.42
2022-12-04T06:34:16.991Z,34.05
2022-12-04T06:36:46.418Z,36.88
2022-12-04T06:39:18.942Z,34.10
2022-12-04T06:41:47.757Z,33.83
2022-12-04T06:44:17.745Z,35.65
2022-12-04T06:46:48.076Z,36.70
2022-12-04T06:49:19.992Z,37.67
2022-12-04T06:51:49.567Z,41.18
2022-12-04T06:54:19.053Z,40.08
2022-12-04T06:56:50.810Z,35.37
2022-12-04T06:59:20.282Z,37.00
2022-12-04T07:01:49.875Z,35.00
2022-12-04T07:04:19.534Z,36.75
2022-12-04T07:06:48.972Z,39.65
2022-12-04T07:09:19.261Z,33.13
2022-12-04T07:11:48.764Z,31.90
2022-12-04T07:14:18.178Z,33.13
2022-12-04T07:16:47.744Z,31.30
2022-12-04T07:19:17.203Z,42.70
2022-12-04T07:21:46.638Z,36.45
2022-12-04T07:24:18.237Z,37.73
2022-12-04T07:26:48.199Z,37.30
2022-12-04T07:29:17.633Z,33.48
2022-12-04T07:31:47.282Z,38.20
2022-12-04T07:34:16.755Z,37.15
2022-12-04T07:36:46.194Z,38.28
2022-12-04T07:39:15.691Z,36.33
2022-12-04T07:41:45.179Z,36.60
2022-12-04T07:44:15.135Z,38.70
2022-12-04T07:46:44.562Z,38.28
2022-12-04T07:49:14.079Z,38.53
2022-12-04T07:51:43.671Z,37.73
2022-12-04T07:54:13.101Z,39.03
2022-12-04T07:56:42.532Z,40.12
2022-12-04T07:59:11.983Z,43.25
2022-12-04T08:01:41.971Z,38.28
2022-12-04T08:04:12.356Z,38.10
2022-12-04T08:06:42.183Z,41.55
2022-12-04T08:09:11.684Z,39.35
2022-12-04T08:11:41.183Z,39.50
2022-12-04T08:14:13.690Z,37.45
2022-12-04T08:16:48.205Z,35.58
2022-12-04T08:19:15.283Z,36.13
2022-12-04T08:21:44.726Z,33.45
2022-12-04T08:24:15.691Z,32.98
2022-12-04T08:26:45.171Z,35.37
2022-12-04T08:29:14.613Z,31.52
2022-12-04T08:31:44.030Z,35.15
2022-12-04T08:34:14.281Z,33.88
2022-12-04T08:36:43.862Z,35.23
2022-12-04T08:39:13.968Z,33.98
2022-12-04T08:41:43.384Z,37.50
2022-12-04T08:44:12.840Z,32.90
2022-12-04T08:46:42.408Z,33.70
2022-12-04T08:49:12.026Z,29.20
2022-12-04T08:51:41.505Z,31.00
2022-12-04T08:54:13.511Z,30.68
2022-12-04T08:56:44.668Z,32.45
2022-12-04T08:59:15.088Z,31.30
2022-12-04T09:01:44.652Z,28.55
2022-12-04T09:04:14.179Z,28.07
2022-12-04T09:06:43.689Z,29.75
2022-12-04T09:09:13.120Z,35.20
2022-12-04T09:11:44.106Z,30.95
2022-12-04T09:14:13.764Z,30.50
2022-12-04T09:16:43.194Z,33.55
2022-12-04T09:19:12.657Z,45.80
2022-12-04T09:21:42.093Z,35.43
2022-12-04T09:24:11.530Z,35.30
2022-12-04T09:26:41.258Z,30.60
2022-12-04T09:29:12.706Z,33.38
2022-12-04T09:31:42.288Z,32.83
2022-12-04T09:34:11.763Z,32.15
2022-12-04T09:36:41.550Z,33.58
2022-12-04T09:39:12.154Z,33.73
2022-12-04T09:42:01.418Z,32.63
2022-12-04T09:44:42.804Z,32.93
2022-12-04T09:47:24.131Z,32.03
2022-12-04T09:49:59.878Z,32.90
2022-12-04T09:53:01.256Z,32.70
2022-12-04T09:55:36.451Z,32.78
2022-12-04T09:58:09.331Z,35.88
2022-12-04T10:00:42.073Z,33.30
2022-12-04T10:03:23.550Z,34.38
2022-12-04T10:06:11.393Z,32.58
2022-12-04T10:08:43.858Z,31.90
2022-12-04T10:11:32.523Z,30.97
2022-12-04T10:14:19.111Z,33.90
2022-12-04T10:17:11.117Z,30.23
2022-12-04T10:20:13.348Z,26.70
2022-12-04T10:22:57.663Z,27.60
2022-12-04T10:25:29.168Z,29.63
2022-12-04T10:28:04.321Z,29.10
2022-12-04T10:30:36.851Z,28.30
2022-12-04T10:33:27.587Z,28.07
2022-12-04T10:35:57.563Z,27.80
2022-12-04T10:38:33.001Z,31.73
2022-12-04T10:41:08.860Z,31.10
2022-12-04T10:43:43.159Z,29.55
2022-12-04T10:46:15.787Z,25.75
2022-12-04T10:48:48.586Z,25.37
2022-12-04T10:51:21.763Z,27.32
2022-12-04T10:56:26.057Z,27.75
2022-12-04T10:59:04.424Z,27.42
2022-12-04T11:01:36.417Z,24.82
2022-12-04T11:04:09.257Z,27.10
2022-12-04T11:06:39.874Z,25.20
2022-12-04T11:09:11.035Z,27.15
2022-12-04T11:11:40.554Z,24.47
2022-12-04T11:14:19.100Z,23.45
2022-12-04T11:16:51.857Z,23.77
2022-12-04T11:19:30.190Z,24.60
2022-12-04T11:22:17.537Z,19.42
2022-12-04T11:24:56.036Z,22.35
2022-12-04T11:27:34.821Z,21.40
2022-12-04T11:30:10.193Z,18.65
2022-12-04T11:32:42.252Z,18.35
2022-12-04T11:35:20.589Z,23.10
2022-12-04T11:37:56.025Z,16.10
2022-12-04T11:40:27.663Z,15.90
2022-12-04T11:43:02.935Z,18.52
2022-12-04T11:45:33.216Z,22.42
2022-12-04T11:48:05.777Z,21.45
2022-12-04T11:53:14.071Z,19.30
2022-12-04T11:55:46.608Z,22.07
2022-12-04T12:01:01.312Z,20.70
2022-12-04T12:03:33.976Z,19.87
2022-12-04T12:06:14.873Z,22.35
2022-12-04T12:09:11.283Z,20.88
2022-12-04T12:11:43.785Z,23.47
2022-12-04T12:14:25.165Z,21.55
2022-12-04T12:17:00.302Z,21.87
2022-12-04T12:19:33.007Z,22.20
2022-12-04T12:22:11.108Z,22.85
2022-12-04T12:24:52.703Z,24.23
2022-12-04T12:27:40.032Z,21.57
2022-12-04T12:30:23.985Z,22.67
2022-12-04T12:32:56.470Z,24.32
2022-12-04T12:35:34.675Z,30.45
2022-12-04T12:38:13.002Z,24.37
2022-12-04T12:40:45.948Z,23.45
2022-12-04T12:43:18.507Z,24.25
2022-12-04T12:46:08.805Z,22.80
2022-12-04T12:48:47.272Z,22.70
2022-12-04T12:51:36.177Z,21.42
2022-12-04T12:54:20.716Z,22.85
2022-12-04T12:56:53.355Z,22.15
2022-12-04T12:59:25.901Z,23.02
2022-12-04T13:02:02.546Z,22.27
2022-12-04T13:04:47.586Z,22.10
2022-12-04T13:07:23.035Z,24.70
2022-12-04T13:09:55.724Z,28.23
2022-12-04T13:12:27.296Z,30.08
2022-12-04T13:14:56.749Z,35.68
2022-12-04T13:17:35.192Z,35.08
2022-12-04T13:20:10.949Z,31.07
2022-12-04T13:22:43.525Z,35.43
2022-12-04T13:25:21.974Z,32.45
2022-12-04T13:28:15.561Z,36.40
2022-12-04T13:33:32.955Z,32.48
2022-12-04T13:36:11.496Z,31.30
2022-12-04T13:38:53.685Z,32.50
2022-12-04T13:41:26.032Z,28.40
2022-12-04T13:44:00.620Z,33.48
2022-12-04T13:46:35.382Z,27.60
2022-12-04T13:49:24.806Z,23.57
2022-12-04T13:51:56.079Z,24.80
2022-12-04T13:54:28.573Z,24.67
2022-12-04T13:57:01.207Z,24.87
2022-12-04T13:59:36.208Z,21.07
2022-12-04T14:02:25.088Z,27.95
2022-12-04T14:05:06.058Z,23.60
2022-12-04T14:07:38.601Z,23.83
2022-12-04T14:10:11.675Z,23.42
2022-12-04T14:15:25.968Z,25.43
2022-12-04T14:18:16.582Z,25.02
2022-12-04T14:20:46.159Z,22.77
2022-12-04T14:23:25.485Z,24.10
2022-12-04T14:25:57.962Z,25.75
2022-12-04T14:28:30.438Z,20.12
2022-12-04T14:31:08.924Z,23.42
2022-12-04T14:33:47.171Z,28.92
2022-12-04T14:36:25.763Z,31.02
2022-12-04T14:38:58.271Z,26.65
2022-12-04T14:41:28.317Z,26.02
2022-12-04T14:43:58.278Z,28.17
2022-12-04T14:46:30.888Z,26.40
2022-12-04T14:49:36.455Z,28.12
2022-12-04T14:52:17.866Z,28.17
2022-12-04T14:55:00.788Z,25.92
2022-12-04T15:00:09.100Z,26.55
2022-12-04T15:02:44.326Z,24.52
2022-12-04T15:05:22.606Z,21.68
2022-12-04T15:07:55.140Z,23.77
2022-12-04T15:10:45.673Z,23.18
2022-12-04T15:13:21.469Z,22.98
2022-12-04T15:15:48.463Z,25.77
2022-12-04T15:18:19.161Z,19.12
2022-12-04T15:20:56.052Z,22.20
2022-12-04T15:23:33.835Z,18.23
2022-12-04T15:26:09.315Z,21.90
2022-12-04T15:28:58.493Z,24.73
2022-12-04T15:31:33.355Z,25.20
2022-12-04T15:34:05.444Z,22.82
2022-12-04T15:36:53.000Z,24.17
2022-12-04T15:39:28.467Z,22.15
2022-12-04T15:42:10.220Z,21.55
2022-12-04T15:44:39.680Z,25.12
2022-12-04T15:47:18.195Z,22.20
2022-12-04T15:49:47.844Z,26.62
2022-12-04T15:52:25.501Z,25.05
2022-12-04T15:55:03.215Z,21.95
2022-12-04T15:57:35.249Z,21.00
2022-12-04T16:00:07.785Z,21.83
2022-12-04T16:02:40.216Z,22.90
2022-12-04T16:05:15.548Z,24.32
2022-12-04T16:07:59.581Z,19.70
2022-12-04T16:10:34.632Z,21.25
2022-12-04T16:13:06.094Z,23.77
2022-12-04T16:15:40.865Z,22.55
2022-12-04T16:18:13.717Z,26.73
2022-12-04T16:20:43.247Z,26.68
2022-12-04T16:23:12.986Z,30.45
2022-12-04T16:25:42.433Z,29.87
2022-12-04T16:28:12.234Z,34.43
2022-12-04T16:30:41.968Z,41.90
2022-12-04T16:33:16.113Z,42.90
2022-12-04T16:35:45.710Z,41.42
2022-12-04T16:38:18.912Z,37.55
2022-12-04T16:40:49.346Z,33.25
2022-12-04T16:43:18.957Z,33.55
2022-12-04T16:45:54.239Z,33.35
2022-12-04T16:48:23.733Z,44.38
2022-12-04T16:50:53.314Z,48.48
2022-12-04T16:53:23.949Z,53.70
2022-12-04T16:55:54.541Z,52.85
2022-12-04T16:58:23.979Z,44.20
2022-12-04T17:00:58.930Z,47.70
2022-12-04T17:03:34.009Z,47.73
2022-12-04T17:06:03.435Z,46.80
2022-12-04T17:08:33.479Z,42.45
2022-12-04T17:11:03.030Z,37.83
2022-12-04T17:13:32.471Z,38.20
2022-12-04T17:16:02.001Z,41.33
2022-12-04T17:18:31.651Z,45.00
2022-12-04T17:21:02.616Z,45.70
2022-12-04T17:23:32.088Z,48.38
2022-12-04T17:26:07.272Z,49.65
2022-12-04T17:28:37.291Z,44.48
2022-12-04T17:31:15.716Z,49.67
2022-12-04T17:33:46.495Z,51.10
2022-12-04T17:36:18.741Z,51.85
2022-12-04T17:38:48.376Z,58.15
2022-12-04T17:41:17.802Z,65.90
2022-12-04T17:43:47.823Z,73.30
2022-12-04T17:46:21.607Z,72.08
2022-12-04T17:48:51.513Z,71.15
2022-12-04T17:51:23.366Z,68.85
2022-12-04T17:53:53.513Z,73.23
2022-12-04T17:56:25.326Z,73.20
2022-12-04T17:58:55.098Z,69.23
2022-12-04T18:01:27.797Z,66.40
2022-12-04T18:04:00.518Z,64.87
2022-12-04T18:06:33.040Z,67.67
2022-12-04T18:09:04.227Z,62.70
2022-12-04T18:11:36.616Z,64.75
2022-12-04T18:14:12.305Z,59.73
2022-12-04T18:16:43.690Z,56.23
2022-12-04T18:19:15.718Z,55.48
2022-12-04T18:21:45.180Z,52.50
2022-12-04T18:24:15.347Z,51.23
2022-12-04T18:26:48.121Z,53.10
2022-12-04T18:29:20.641Z,62.00
2022-12-04T18:31:51.370Z,59.13
2022-12-04T18:34:23.467Z,65.83
2022-12-04T18:36:52.955Z,80.10
2022-12-04T18:39:25.035Z,84.85
2022-12-04T18:41:57.131Z,98.63
2022-12-04T18:44:27.330Z,73.83
2022-12-04T18:46:58.421Z,56.20
2022-12-04T18:49:27.892Z,63.68
2022-12-04T18:51:59.905Z,64.12
2022-12-04T18:54:29.367Z,69.60
2022-12-04T18:56:58.807Z,62.78
2022-12-04T18:59:29.504Z,69.42
2022-12-04T19:01:59.001Z,70.85
2022-12-04T19:04:28.463Z,65.20
2022-12-04T19:06:57.999Z,65.22
2022-12-04T19:10:09.569Z,65.55
2022-12-04T19:12:01.344Z,67.58
2022-12-04T19:14:30.838Z,71.90
2022-12-04T19:17:00.337Z,73.75
2022-12-04T19:19:31.829Z,75.57
2022-12-04T19:22:02.358Z,79.47
2022-12-04T19:24:32.070Z,72.92
2022-12-04T19:27:03.144Z,81.20
2022-12-04T19:29:32.670Z,83.80
2022-12-04T19:32:02.220Z,74.42
2022-12-04T19:34:31.786Z,70.78
2022-12-04T19:37:01.314Z,79.25
2022-12-04T19:39:30.754Z,80.85
2022-12-04T19:42:00.195Z,86.65
2022-12-04T19:47:00.790Z,86.35
2022-12-04T19:49:30.302Z,84.52
2022-12-04T19:51:59.735Z,75.10
2022-12-04T19:54:30.678Z,80.17
2022-12-04T19:57:01.557Z,91.28
2022-12-04T19:59:36.429Z,98.22
2022-12-04T20:02:02.883Z,99.90
2022-12-04T20:04:32.404Z,94.75
2022-12-04T20:07:01.841Z,86.00
2022-12-04T20:09:31.337Z,92.70
2022-12-04T20:12:00.879Z,96.32
2022-12-04T20:14:30.298Z,93.67
2022-12-04T20:17:01.467Z,91.37
2022-12-04T20:19:30.964Z,84.70
2022-12-04T20:22:00.400Z,94.17
2022-12-04T20:24:30.328Z,89.15
2022-12-04T20:26:59.861Z,89.52
2022-12-04T20:29:29.290Z,87.37
2022-12-04T20:31:58.774Z,89.50
2022-12-04T20:34:28.251Z,88.92
2022-12-04T20:36:59.351Z,89.70
2022-12-04T20:39:29.966Z,95.53
2022-12-04T20:42:01.106Z,84.30
2022-12-04T20:44:30.570Z,89.72
2022-12-04T20:47:00.080Z,95.03
2022-12-04T20:49:29.500Z,94.65
2022-12-04T20:51:58.964Z,94.22
2022-12-04T20:54:28.384Z,93.80
2022-12-04T20:56:57.886Z,101.72
2022-12-04T20:59:27.439Z,90.55
2022-12-04T21:01:56.986Z,90.63
2022-12-04T21:04:26.470Z,81.72
2022-12-04T21:06:56.227Z,74.03
2022-12-04T21:09:26.742Z,71.37
2022-12-04T21:11:56.872Z,69.27
2022-12-04T21:14:47.827Z,73.55
2022-12-04T21:17:20.494Z,73.37
2022-12-04T21:19:51.585Z,75.00
2022-12-04T21:22:21.366Z,68.87
2022-12-04T21:24:50.808Z,73.15
2022-12-04T21:27:21.339Z,74.42
2022-12-04T21:29:51.434Z,79.92
2022-12-04T21:32:21.469Z,85.05
2022-12-04T21:34:52.152Z,88.10
2022-12-04T21:37:21.658Z,80.72
2022-12-04T21:39:51.174Z,74.82
2022-12-04T21:42:33.380Z,80.53
2022-12-04T21:45:06.197Z,84.13
2022-12-04T21:47:37.842Z,83.95
2022-12-04T21:50:08.767Z,82.43
2022-12-04T21:52:38.232Z,94.77
2022-12-04T21:55:07.798Z,122.62
2022-12-04T21:57:37.221Z,125.97
2022-12-04T22:00:08.111Z,122.87
2022-12-04T22:02:38.018Z,122.50
2022-12-04T22:05:09.656Z,119.30
2022-12-04T22:07:39.185Z,114.62
2022-12-04T22:10:11.037Z,98.47
2022-12-04T22:12:49.556Z,83.03
2022-12-04T22:15:12.167Z,92.35
2022-12-04T22:17:41.662Z,81.32
2022-12-04T22:20:11.343Z,81.27
2022-12-04T22:22:40.794Z,94.22
2022-12-04T22:25:10.720Z,92.47
2022-12-04T22:27:40.176Z,90.87
2022-12-04T22:30:10.150Z,90.38
2022-12-04T22:32:39.573Z,88.87
2022-12-04T22:35:09.476Z,76.43
2022-12-04T22:37:44.060Z,104.20
2022-12-04T22:40:12.160Z,97.30
2022-12-04T22:42:42.531Z,93.83
2022-12-04T22:45:12.925Z,95.95
2022-12-04T22:47:42.561Z,90.35
2022-12-04T22:50:13.290Z,74.53
2022-12-04T22:52:42.827Z,71.82
2022-12-04T22:55:12.820Z,72.25
2022-12-04T22:57:42.302Z,74.87
2022-12-04T23:00:12.862Z,66.50
2022-12-04T23:02:42.397Z,70.95
2022-12-04T23:05:11.862Z,80.00
2022-12-04T23:07:41.429Z,73.57
2022-12-04T23:10:11.061Z,72.30
2022-12-04T23:12:40.494Z,77.05
2022-12-04T23:15:10.263Z,68.52
2022-12-04T23:17:39.724Z,71.92
2022-12-04T23:20:10.301Z,69.32
2022-12-04T23:22:40.372Z,74.77
2022-12-04T23:25:09.946Z,75.08
2022-12-04T23:27:39.391Z,69.47
2022-12-04T23:30:10.727Z,67.15
2022-12-04T23:32:40.251Z,62.37
2022-12-04T23:35:09.961Z,60.95
2022-12-04T23:37:39.404Z,60.98
2022-12-04T23:40:09.755Z,67.90
2022-12-04T23:42:39.301Z,64.20
2022-12-04T23:45:09.573Z,63.10
2022-12-04T23:47:39.003Z,62.30
2022-12-04T23:50:08.870Z,65.35
2022-12-04T23:52:38.297Z,70.45
2022-12-04T23:55:09.331Z,61.15
2022-12-04T23:57:38.768Z,59.65
